createdAt,value
2022-10-29T00:02:00.318Z,101713.22
2022-10-29T00:05:02.596Z,101725.81
2022-10-29T00:08:04.631Z,101724.38
2022-10-29T00:11:14.372Z,101721.06
2022-10-29T00:14:16.857Z,101722.59
2022-10-29T00:17:19.079Z,101735.69
2022-10-29T00:20:21.754Z,101731.91
2022-10-29T00:23:23.952Z,101731.50
2022-10-29T00:26:28.513Z,101729.25
2022-10-29T00:29:30.772Z,101729.97
2022-10-29T00:32:32.696Z,101734.56
2022-10-29T00:35:34.863Z,101733.62
2022-10-29T00:38:36.798Z,101730.09
2022-10-29T00:41:39.022Z,101729.50
2022-10-29T00:44:41.230Z,101734.72
2022-10-29T00:47:43.608Z,101731.50
2022-10-29T00:50:47.211Z,101735.00
2022-10-29T00:53:52.399Z,101739.97
2022-10-29T00:56:58.259Z,101730.81
2022-10-29T01:00:00.595Z,101731.66
2022-10-29T01:03:02.622Z,101718.88
2022-10-29T01:06:05.296Z,101718.78
2022-10-29T01:09:07.184Z,101717.84
2022-10-29T01:12:27.149Z,101711.09
2022-10-29T01:15:35.801Z,101704.34
2022-10-29T01:18:42.412Z,101694.37
2022-10-29T01:21:46.293Z,101690.78
2022-10-29T01:24:51.775Z,101693.53
2022-10-29T01:28:06.028Z,101683.09
2022-10-29T01:31:08.212Z,101682.34
2022-10-29T01:34:23.706Z,101683.66
2022-10-29T01:37:55.354Z,101679.38
2022-10-29T01:40:57.243Z,101673.78
2022-10-29T01:44:05.802Z,101672.25
2022-10-29T01:47:16.193Z,101664.28
2022-10-29T01:50:20.453Z,101666.09
2022-10-29T01:53:22.813Z,101667.63
2022-10-29T01:56:24.984Z,101655.19
2022-10-29T01:59:43.395Z,101654.09
2022-10-29T02:03:00.753Z,101654.59
2022-10-29T02:06:22.449Z,101652.06
2022-10-29T02:09:52.399Z,101652.47
2022-10-29T02:12:55.935Z,101655.88
2022-10-29T02:15:58.886Z,101664.03
2022-10-29T02:19:01.240Z,101661.97
2022-10-29T02:22:03.604Z,101655.88
2022-10-29T02:25:06.662Z,101655.31
2022-10-29T02:28:09.132Z,101654.03
2022-10-29T02:31:11.524Z,101654.00
2022-10-29T02:34:13.466Z,101653.78
2022-10-29T02:37:15.724Z,101665.34
2022-10-29T02:40:17.631Z,101651.88
2022-10-29T02:46:26.701Z,101665.38
2022-10-29T02:49:28.966Z,101656.06
2022-10-29T02:52:30.904Z,101647.50
2022-10-29T02:55:33.097Z,101647.69
2022-10-29T02:58:35.279Z,101651.13
2022-10-29T03:01:37.594Z,101643.69
2022-10-29T03:04:39.659Z,101643.41
2022-10-29T03:07:41.870Z,101642.94
2022-10-29T03:10:43.815Z,101651.94
2022-10-29T03:13:46.133Z,101651.06
2022-10-29T03:16:48.016Z,101651.16
2022-10-29T03:19:50.188Z,101649.94
2022-10-29T03:22:52.095Z,101652.12
2022-10-29T03:25:56.072Z,101646.16
2022-10-29T03:28:58.400Z,101642.25
2022-10-29T03:32:00.649Z,101642.44
2022-10-29T03:35:02.617Z,101640.72
2022-10-29T03:38:04.881Z,101630.69
2022-10-29T03:41:10.423Z,101635.53
2022-10-29T03:44:12.804Z,101634.84
2022-10-29T03:47:14.684Z,101638.56
2022-10-29T03:50:17.114Z,101640.72
2022-10-29T03:53:19.067Z,101641.47
2022-10-29T03:56:21.296Z,101638.19
2022-10-29T03:59:23.205Z,101633.63
2022-10-29T04:02:25.511Z,101626.22
2022-10-29T04:05:27.771Z,101635.72
2022-10-29T04:08:29.702Z,101634.47
2022-10-29T04:11:31.944Z,101646.91
2022-10-29T04:14:34.774Z,101638.75
2022-10-29T04:17:36.976Z,101648.22
2022-10-29T04:20:47.629Z,101643.69
2022-10-29T04:30:45.675Z,101648.22
2022-10-29T04:33:47.610Z,101643.69
2022-10-29T04:36:51.309Z,101639.50
2022-10-29T04:39:53.228Z,101641.66
2022-10-29T04:42:55.904Z,101642.25
2022-10-29T04:45:59.153Z,101642.91
2022-10-29T04:49:01.375Z,101637.78
2022-10-29T04:52:03.581Z,101638.19
2022-10-29T04:55:06.096Z,101635.41
2022-10-29T04:58:11.617Z,101633.81
2022-10-29T05:01:13.982Z,101637.69
2022-10-29T05:04:16.104Z,101640.53
2022-10-29T05:07:18.368Z,101640.44
2022-10-29T05:10:20.465Z,101639.41
2022-10-29T05:13:22.722Z,101638.62
2022-10-29T05:16:24.676Z,101646.97
2022-10-29T05:19:26.886Z,101650.63
2022-10-29T05:22:28.772Z,101645.75
2022-10-29T05:25:32.002Z,101638.72
2022-10-29T05:28:33.908Z,101645.59
2022-10-29T05:31:36.191Z,101637.13
2022-10-29T05:34:40.666Z,101646.63
2022-10-29T05:37:50.247Z,101644.25
2022-10-29T05:40:52.187Z,101640.72
2022-10-29T05:43:54.434Z,101645.00
2022-10-29T05:46:56.337Z,101647.56
2022-10-29T05:49:58.561Z,101640.97
2022-10-29T05:53:01.727Z,101643.91
2022-10-29T05:56:04.123Z,101648.44
2022-10-29T05:59:06.041Z,101651.78
2022-10-29T06:02:09.395Z,101641.50
2022-10-29T06:05:11.712Z,101644.94
2022-10-29T06:08:13.704Z,101642.81
2022-10-29T06:11:15.925Z,101639.63
2022-10-29T06:14:17.799Z,101638.00
2022-10-29T06:17:20.038Z,101626.63
2022-10-29T06:20:21.995Z,101629.00
2022-10-29T06:23:24.210Z,101639.53
2022-10-29T06:26:27.178Z,101645.03
2022-10-29T06:29:29.369Z,101657.75
2022-10-29T06:32:31.451Z,101643.81
2022-10-29T06:38:36.963Z,101658.03
2022-10-29T06:41:39.237Z,101654.75
2022-10-29T06:44:41.126Z,101660.41
2022-10-29T06:47:44.244Z,101663.06
2022-10-29T06:50:46.153Z,101662.47
2022-10-29T06:53:49.019Z,101661.78
2022-10-29T06:56:50.961Z,101660.50
2022-10-29T06:59:53.228Z,101654.16
2022-10-29T07:02:55.881Z,101660.75
2022-10-29T07:05:59.200Z,101645.75
2022-10-29T07:09:01.164Z,101650.66
2022-10-29T07:12:03.533Z,101648.84
2022-10-29T07:15:06.044Z,101649.72
2022-10-29T07:18:09.427Z,101656.66
2022-10-29T07:21:11.354Z,101659.22
2022-10-29T07:24:13.661Z,101666.47
2022-10-29T07:27:15.623Z,101671.53
2022-10-29T07:30:17.986Z,101677.97
2022-10-29T07:33:19.906Z,101673.69
2022-10-29T07:36:22.127Z,101691.09
2022-10-29T07:39:24.104Z,101689.38
2022-10-29T07:42:26.316Z,101692.34
2022-10-29T07:45:28.599Z,101692.81
2022-10-29T07:48:30.837Z,101676.22
2022-10-29T07:51:32.850Z,101671.19
2022-10-29T07:54:35.114Z,101671.78
2022-10-29T07:57:37.047Z,101668.38
2022-10-29T08:00:40.333Z,101670.41
2022-10-29T08:03:42.778Z,101666.72
2022-10-29T08:06:44.797Z,101661.50
2022-10-29T08:09:47.105Z,101662.72
2022-10-29T08:12:50.003Z,101660.94
2022-10-29T08:15:52.305Z,101662.19
2022-10-29T08:18:54.328Z,101666.47
2022-10-29T08:21:56.838Z,101669.12
2022-10-29T08:24:58.737Z,101663.03
2022-10-29T08:28:04.826Z,101659.63
2022-10-29T08:31:06.746Z,101661.78
2022-10-29T08:34:11.254Z,101666.38
2022-10-29T08:37:13.346Z,101672.00
2022-10-29T08:40:15.576Z,101671.91
2022-10-29T08:43:27.618Z,101670.13
2022-10-29T08:46:32.841Z,101683.22
2022-10-29T08:49:38.906Z,101686.72
2022-10-29T08:52:53.012Z,101672.25
2022-10-29T08:56:00.528Z,101660.37
2022-10-29T08:59:16.789Z,101645.00
2022-10-29T09:02:18.772Z,101662.22
2022-10-29T09:05:24.884Z,101655.19
2022-10-29T09:08:44.064Z,101655.66
2022-10-29T09:12:05.551Z,101653.66
2022-10-29T09:15:26.280Z,101660.03
2022-10-29T09:18:34.405Z,101655.47
2022-10-29T09:21:44.443Z,101646.91
2022-10-29T09:24:55.453Z,101651.56
2022-10-29T09:28:06.273Z,101657.75
2022-10-29T09:31:08.489Z,101664.22
2022-10-29T09:34:18.124Z,101654.50
2022-10-29T09:37:24.257Z,101649.56
2022-10-29T09:40:29.180Z,101658.91
2022-10-29T09:43:50.147Z,101664.13
2022-10-29T09:47:09.898Z,101658.13
2022-10-29T09:50:12.338Z,101656.97
2022-10-29T09:53:14.499Z,101644.59
2022-10-29T09:56:16.736Z,101638.59
2022-10-29T09:59:24.292Z,101638.72
2022-10-29T10:02:32.799Z,101643.72
2022-10-29T10:05:35.719Z,101640.97
2022-10-29T10:08:58.481Z,101637.37
2022-10-29T10:12:00.953Z,101633.31
2022-10-29T10:15:03.161Z,101626.81
2022-10-29T10:18:19.066Z,101631.72
2022-10-29T10:21:31.500Z,101627.66
2022-10-29T10:24:35.156Z,101632.97
2022-10-29T10:27:37.108Z,101619.03
2022-10-29T10:30:39.370Z,101613.28
2022-10-29T10:33:59.490Z,101622.16
2022-10-29T10:37:07.171Z,101612.66
2022-10-29T10:40:20.800Z,101607.75
2022-10-29T10:43:24.350Z,101616.37
2022-10-29T10:46:29.219Z,101615.41
2022-10-29T10:49:33.564Z,101606.47
2022-10-29T10:52:35.523Z,101602.28
2022-10-29T10:55:38.702Z,101598.91
2022-10-29T10:58:42.960Z,101596.84
2022-10-29T11:01:48.026Z,101594.88
2022-10-29T11:04:51.797Z,101595.25
2022-10-29T11:07:54.205Z,101584.62
2022-10-29T11:10:59.504Z,101591.25
2022-10-29T11:14:05.837Z,101593.84
2022-10-29T11:17:17.534Z,101585.47
2022-10-29T11:20:25.748Z,101576.13
2022-10-29T11:23:34.097Z,101574.00
2022-10-29T11:26:40.442Z,101570.66
2022-10-29T11:29:50.043Z,101574.09
2022-10-29T11:33:11.283Z,101575.69
2022-10-29T11:36:23.289Z,101569.91
2022-10-29T11:39:45.816Z,101565.44
2022-10-29T11:42:47.798Z,101565.63
2022-10-29T11:45:50.005Z,101563.53
2022-10-29T11:49:15.157Z,101553.41
2022-10-29T11:52:30.499Z,101555.97
2022-10-29T11:55:43.933Z,101553.56
2022-10-29T11:58:57.386Z,101554.41
2022-10-29T12:02:18.327Z,101551.38
2022-10-29T12:05:21.015Z,101553.19
2022-10-29T12:08:41.649Z,101544.38
2022-10-29T12:11:55.680Z,101540.28
2022-10-29T12:15:00.689Z,101538.25
2022-10-29T12:18:21.708Z,101548.72
2022-10-29T12:21:32.596Z,101535.72
2022-10-29T12:24:53.745Z,101531.56
2022-10-29T12:28:03.461Z,101524.09
2022-10-29T12:31:08.370Z,101522.59
2022-10-29T12:34:25.293Z,101523.59
2022-10-29T12:37:40.748Z,101521.31
2022-10-29T12:40:43.733Z,101511.19
2022-10-29T12:43:46.394Z,101501.06
2022-10-29T12:46:57.462Z,101492.47
2022-10-29T12:50:05.514Z,101491.25
2022-10-29T12:53:25.587Z,101484.91
2022-10-29T12:56:28.838Z,101489.16
2022-10-29T12:59:35.531Z,101490.84
2022-10-29T13:02:37.900Z,101489.78
2022-10-29T13:05:41.640Z,101482.22
2022-10-29T13:08:54.964Z,101485.31
2022-10-29T13:11:58.359Z,101484.03
2022-10-29T13:15:04.693Z,101475.19
2022-10-29T13:18:12.657Z,101472.00
2022-10-29T13:21:34.809Z,101479.00
2022-10-29T13:24:36.853Z,101477.00
2022-10-29T13:27:39.071Z,101482.22
2022-10-29T13:30:42.011Z,101490.59
2022-10-29T13:33:44.211Z,101482.72
2022-10-29T13:36:46.156Z,101474.84
2022-10-29T13:40:08.353Z,101486.88
2022-10-29T13:43:19.758Z,101482.16
2022-10-29T13:46:45.503Z,101483.78
2022-10-29T13:49:48.703Z,101479.59
2022-10-29T13:52:53.401Z,101478.03
2022-10-29T13:55:55.831Z,101475.34
2022-10-29T13:59:00.414Z,101471.19
2022-10-29T14:02:14.550Z,101469.34
2022-10-29T14:05:46.315Z,101471.69
2022-10-29T14:08:55.756Z,101469.12
2022-10-29T14:12:00.709Z,101461.50
2022-10-29T14:15:05.904Z,101456.16
2022-10-29T14:18:26.882Z,101455.84
2022-10-29T14:21:30.533Z,101456.47
2022-10-29T14:24:38.249Z,101459.84
2022-10-29T14:27:40.167Z,101450.59
2022-10-29T14:30:42.607Z,101473.69
2022-10-29T14:33:45.803Z,101466.88
2022-10-29T14:36:49.215Z,101466.97
2022-10-29T14:39:58.232Z,101469.59
2022-10-29T14:43:01.642Z,101471.50
2022-10-29T14:46:17.141Z,101467.13
2022-10-29T14:49:24.038Z,101467.81
2022-10-29T14:52:28.886Z,101455.47
2022-10-29T14:55:33.809Z,101455.56
2022-10-29T14:58:36.448Z,101459.94
2022-10-29T15:01:51.626Z,101459.38
2022-10-29T15:04:59.744Z,101462.31
2022-10-29T15:08:03.935Z,101454.88
2022-10-29T15:11:05.860Z,101462.25
2022-10-29T15:17:31.682Z,101453.97
2022-10-29T15:20:39.648Z,101450.25
2022-10-29T15:23:43.459Z,101442.09
2022-10-29T15:27:11.692Z,101436.72
2022-10-29T15:30:20.845Z,101442.47
2022-10-29T15:33:27.543Z,101421.50
2022-10-29T15:36:43.914Z,101433.09
2022-10-29T15:39:59.887Z,101423.06
2022-10-29T15:43:20.821Z,101438.13
2022-10-29T15:46:51.058Z,101440.97
2022-10-29T15:49:53.041Z,101437.81
2022-10-29T15:53:01.703Z,101439.34
2022-10-29T15:56:03.904Z,101442.84
2022-10-29T15:59:07.025Z,101439.34
2022-10-29T16:02:11.248Z,101445.03
2022-10-29T16:05:15.530Z,101442.56
2022-10-29T16:08:31.610Z,101469.81
2022-10-29T16:11:34.891Z,101475.41
2022-10-29T16:14:36.885Z,101456.16
2022-10-29T16:17:39.132Z,101454.25
2022-10-29T16:20:41.056Z,101447.13
2022-10-29T16:23:44.209Z,101457.19
2022-10-29T16:26:46.174Z,101445.34
2022-10-29T16:29:49.634Z,101452.25
2022-10-29T16:32:52.374Z,101447.59
2022-10-29T16:35:54.643Z,101441.88
2022-10-29T16:38:56.616Z,101452.19
2022-10-29T16:41:58.904Z,101441.03
2022-10-29T16:45:00.874Z,101444.09
2022-10-29T16:48:03.565Z,101433.84
2022-10-29T16:51:05.769Z,101430.44
2022-10-29T16:54:08.022Z,101436.41
2022-10-29T16:57:09.929Z,101439.72
2022-10-29T17:00:12.402Z,101430.69
2022-10-29T17:03:15.435Z,101440.19
2022-10-29T17:06:17.782Z,101436.44
2022-10-29T17:09:24.505Z,101436.69
2022-10-29T17:12:27.674Z,101425.28
2022-10-29T17:15:29.611Z,101429.66
2022-10-29T17:18:32.445Z,101431.25
2022-10-29T17:21:34.425Z,101440.81
2022-10-29T17:24:36.786Z,101431.78
2022-10-29T17:27:39.545Z,101452.00
2022-10-29T17:30:41.901Z,101435.84
2022-10-29T17:33:43.849Z,101424.66
2022-10-29T17:36:46.515Z,101409.38
2022-10-29T17:39:48.426Z,101427.22
2022-10-29T17:42:50.624Z,101419.81
2022-10-29T17:45:52.627Z,101420.66
2022-10-29T17:48:55.945Z,101415.78
2022-10-29T17:51:57.845Z,101418.44
2022-10-29T17:55:00.088Z,101422.72
2022-10-29T17:58:02.141Z,101428.22
2022-10-29T18:01:05.634Z,101437.22
2022-10-29T18:04:07.928Z,101433.75
2022-10-29T18:07:09.896Z,101431.03
2022-10-29T18:10:12.120Z,101428.38
2022-10-29T18:13:15.002Z,101414.88
2022-10-29T18:16:18.579Z,101416.78
2022-10-29T18:19:20.605Z,101420.41
2022-10-29T18:22:22.792Z,101425.00
2022-10-29T18:25:24.808Z,101426.03
2022-10-29T18:28:27.640Z,101438.06
2022-10-29T18:31:30.609Z,101420.00
2022-10-29T18:34:34.147Z,101417.25
2022-10-29T18:37:36.104Z,101418.19
2022-10-29T18:40:38.452Z,101415.53
2022-10-29T18:43:40.389Z,101423.91
2022-10-29T18:46:42.617Z,101431.03
2022-10-29T18:49:44.540Z,101427.66
2022-10-29T18:52:46.781Z,101418.19
2022-10-29T18:55:52.116Z,101408.47
2022-10-29T18:58:55.670Z,101407.00
2022-10-29T19:01:57.845Z,101405.50
2022-10-29T19:05:00.094Z,101397.13
2022-10-29T19:08:02.409Z,101394.88
2022-10-29T19:11:05.811Z,101384.78
2022-10-29T19:14:09.995Z,101392.00
2022-10-29T19:17:12.269Z,101385.38
2022-10-29T19:20:14.222Z,101387.50
2022-10-29T19:23:16.484Z,101387.19
2022-10-29T19:26:18.530Z,101389.56
2022-10-29T19:29:20.782Z,101385.50
2022-10-29T19:32:22.722Z,101372.41
2022-10-29T19:35:25.037Z,101379.44
2022-10-29T19:38:27.141Z,101372.09
2022-10-29T19:41:29.612Z,101378.16
2022-10-29T19:44:31.548Z,101374.44
2022-10-29T19:47:34.075Z,101382.63
2022-10-29T19:50:36.146Z,101396.22
2022-10-29T19:53:38.782Z,101386.66
2022-10-29T19:56:40.678Z,101376.31
2022-10-29T19:59:42.933Z,101372.50
2022-10-29T20:02:45.303Z,101374.34
2022-10-29T20:05:47.621Z,101362.50
2022-10-29T20:08:49.821Z,101363.47
2022-10-29T20:11:52.026Z,101363.47
2022-10-29T20:14:54.040Z,101358.34
2022-10-29T20:17:57.377Z,101371.84
2022-10-29T20:20:59.567Z,101366.31
2022-10-29T20:24:01.903Z,101366.03
2022-10-29T20:27:03.895Z,101359.31
2022-10-29T20:30:06.467Z,101364.22
2022-10-29T20:33:08.557Z,101359.03
2022-10-29T20:36:10.818Z,101368.38
2022-10-29T20:39:14.093Z,101369.13
2022-10-29T20:42:16.445Z,101377.97
2022-10-29T20:45:19.573Z,101371.59
2022-10-29T20:48:21.735Z,101367.72
2022-10-29T20:51:24.241Z,101369.78
2022-10-29T20:54:26.461Z,101374.44
2022-10-29T20:57:28.355Z,101375.84
2022-10-29T21:00:30.580Z,101377.97
2022-10-29T21:03:33.800Z,101368.47
2022-10-29T21:06:36.030Z,101380.19
2022-10-29T21:09:37.959Z,101373.81
2022-10-29T21:12:40.206Z,101370.69
2022-10-29T21:15:42.153Z,101368.69
2022-10-29T21:18:45.929Z,101378.03
2022-10-29T21:21:48.070Z,101374.56
2022-10-29T21:24:50.353Z,101370.69
2022-10-29T21:27:53.501Z,101382.09
2022-10-29T21:30:55.765Z,101370.94
2022-10-29T21:33:57.674Z,101371.25
2022-10-29T21:36:59.943Z,101382.09
2022-10-29T21:40:06.006Z,101375.59
2022-10-29T21:43:08.738Z,101372.94
2022-10-29T21:46:10.711Z,101378.16
2022-10-29T21:49:15.743Z,101379.66
2022-10-29T21:52:17.818Z,101375.31
2022-10-29T21:55:20.049Z,101383.88
2022-10-29T21:58:21.961Z,101381.97
2022-10-29T22:01:24.323Z,101378.78
2022-10-29T22:04:27.022Z,101377.56
2022-10-29T22:07:28.954Z,101376.16
2022-10-29T22:10:31.162Z,101362.97
2022-10-29T22:13:33.963Z,101357.75
2022-10-29T22:16:36.157Z,101351.38
2022-10-29T22:19:38.078Z,101357.88
2022-10-29T22:22:40.300Z,101359.81
2022-10-29T22:25:42.266Z,101364.56
2022-10-29T22:28:44.490Z,101364.66
2022-10-29T22:31:46.385Z,101377.31
2022-10-29T22:34:48.595Z,101359.84
2022-10-29T22:37:50.540Z,101360.31
2022-10-29T22:40:52.756Z,101352.94
2022-10-29T22:43:55.207Z,101358.25
2022-10-29T22:46:57.434Z,101352.19
2022-10-29T22:49:59.489Z,101349.97
2022-10-29T22:53:01.697Z,101333.91
2022-10-29T22:56:04.200Z,101343.84
2022-10-29T22:59:06.574Z,101340.22
2022-10-29T23:02:08.587Z,101328.34
2022-10-29T23:05:10.909Z,101329.84
2022-10-29T23:08:12.836Z,101332.53
2022-10-29T23:11:22.074Z,101328.06
2022-10-29T23:14:24.024Z,101316.03
2022-10-29T23:17:26.239Z,101320.59
2022-10-29T23:20:28.149Z,101327.50
2022-10-29T23:23:31.768Z,101317.31
2022-10-29T23:26:33.688Z,101335.47
2022-10-29T23:29:35.894Z,101321.13
2022-10-29T23:32:37.896Z,101320.28
2022-10-29T23:35:40.089Z,101327.50
2022-10-29T23:38:42.053Z,101326.84
2022-10-29T23:41:44.270Z,101323.78
2022-10-29T23:44:46.209Z,101312.84
2022-10-29T23:47:48.466Z,101312.41
2022-10-29T23:50:50.493Z,101316.97
2022-10-29T23:53:56.416Z,101312.06
2022-10-29T23:56:59.697Z,101305.91
